sensor_id;sensor_type;location;lat;lon;timestamp;temperature;humidity
32839;DHT22;19182;41.820;12.808;2024-02-16T00:07:10;4.20;99.90
32839;DHT22;19182;41.820;12.808;2024-02-16T00:34:07;4.50;99.90
32839;DHT22;19182;41.820;12.808;2024-02-16T00:36:32;4.50;99.90
32839;DHT22;19182;41.820;12.808;2024-02-16T00:39:00;4.50;99.90
32839;DHT22;19182;41.820;12.808;2024-02-16T00:58:30;4.80;99.90
32839;DHT22;19182;41.820;12.808;2024-02-16T01:00:56;4.90;99.90
32839;DHT22;19182;41.820;12.808;2024-02-16T01:03:22;4.80;99.90
32839;DHT22;19182;41.820;12.808;2024-02-16T01:15:32;5.50;99.90
32839;DHT22;19182;41.820;12.808;2024-02-16T01:20:31;5.90;99.90
32839;DHT22;19182;41.820;12.808;2024-02-16T01:35:14;6.30;99.90
32839;DHT22;19182;41.820;12.808;2024-02-16T01:37:41;6.40;99.90
32839;DHT22;19182;41.820;12.808;2024-02-16T01:40:10;6.40;99.90
32839;DHT22;19182;41.820;12.808;2024-02-16T01:54:57;6.50;99.90
32839;DHT22;19182;41.820;12.808;2024-02-16T01:57:23;6.50;99.90
32839;DHT22;19182;41.820;12.808;2024-02-16T01:59:49;6.50;99.90
32839;DHT22;19182;41.820;12.808;2024-02-16T02:04:42;6.50;99.90
32839;DHT22;19182;41.820;12.808;2024-02-16T02:21:53;6.70;99.90
32839;DHT22;19182;41.820;12.808;2024-02-16T02:26:53;6.90;99.90
32839;DHT22;19182;41.820;12.808;2024-02-16T02:29:20;6.80;99.90
32839;DHT22;19182;41.820;12.808;2024-02-16T02:43:56;6.40;99.90
32839;DHT22;19182;41.820;12.808;2024-02-16T02:46:23;6.30;99.90
32839;DHT22;19182;41.820;12.808;2024-02-16T02:48:49;6.10;99.90
32839;DHT22;19182;41.820;12.808;2024-02-16T02:51:16;6.20;99.90
32839;DHT22;19182;41.820;12.808;2024-02-16T02:58:41;5.80;99.90
32839;DHT22;19182;41.820;12.808;2024-02-16T03:08:26;5.80;99.90
32839;DHT22;19182;41.820;12.808;2024-02-16T03:20:37;7.10;99.90
32839;DHT22;19182;41.820;12.808;2024-02-16T03:25:31;7.60;99.90
32839;DHT22;19182;41.820;12.808;2024-02-16T03:27:56;7.60;99.90
32839;DHT22;19182;41.820;12.808;2024-02-16T03:32:52;7.40;99.90
32839;DHT22;19182;41.820;12.808;2024-02-16T03:35:18;7.50;99.90
32839;DHT22;19182;41.820;12.808;2024-02-16T03:37:45;7.60;99.90
32839;DHT22;19182;41.820;12.808;2024-02-16T03:40:13;7.60;99.90
32839;DHT22;19182;41.820;12.808;2024-02-16T03:49:59;8.00;99.90
32839;DHT22;19182;41.820;12.808;2024-02-16T03:52:24;8.00;99.90
32839;DHT22;19182;41.820;12.808;2024-02-16T04:14:21;8.20;99.90
32839;DHT22;19182;41.820;12.808;2024-02-16T04:16:47;8.30;99.90
32839;DHT22;19182;41.820;12.808;2024-02-16T04:21:38;8.20;99.90
32839;DHT22;19182;41.820;12.808;2024-02-16T04:36:14;8.40;99.90
32839;DHT22;19182;41.820;12.808;2024-02-16T04:41:08;8.30;99.90
32839;DHT22;19182;41.820;12.808;2024-02-16T05:05:32;7.60;99.90
32839;DHT22;19182;41.820;12.808;2024-02-16T05:12:53;7.30;99.90
32839;DHT22;19182;41.820;12.808;2024-02-16T05:15:19;7.00;99.90
32839;DHT22;19182;41.820;12.808;2024-02-16T05:17:47;6.70;99.90
32839;DHT22;19182;41.820;12.808;2024-02-16T05:20:16;6.60;99.90
32839;DHT22;19182;41.820;12.808;2024-02-16T05:22:44;6.40;99.90
32839;DHT22;19182;41.820;12.808;2024-02-16T05:47:32;5.10;99.90
32839;DHT22;19182;41.820;12.808;2024-02-16T05:49:58;5.00;99.90
32839;DHT22;19182;41.820;12.808;2024-02-16T05:52:24;4.80;99.90
32839;DHT22;19182;41.820;12.808;2024-02-16T06:02:11;4.80;99.90
32839;DHT22;19182;41.820;12.808;2024-02-16T06:12:04;5.20;99.90
32839;DHT22;19182;41.820;12.808;2024-02-16T06:17:41;5.50;99.90
32839;DHT22;19182;41.820;12.808;2024-02-16T06:20:08;5.90;99.90
32839;DHT22;19182;41.820;12.808;2024-02-16T06:22:36;6.50;99.90
32839;DHT22;19182;41.820;12.808;2024-02-16T06:32:24;7.50;99.90
32839;DHT22;19182;41.820;12.808;2024-02-16T06:42:10;8.10;99.90
32839;DHT22;19182;41.820;12.808;2024-02-16T06:44:39;8.20;99.90
32839;DHT22;19182;41.820;12.808;2024-02-16T06:47:05;8.70;99.90
32839;DHT22;19182;41.820;12.808;2024-02-16T06:49:31;8.70;99.90
32839;DHT22;19182;41.820;12.808;2024-02-16T06:51:59;11.20;99.90
32839;DHT22;19182;41.820;12.808;2024-02-16T07:26:17;11.70;99.90
32839;DHT22;19182;41.820;12.808;2024-02-16T07:38:39;11.80;99.90
32839;DHT22;19182;41.820;12.808;2024-02-16T07:43:31;12.00;99.90
32839;DHT22;19182;41.820;12.808;2024-02-16T07:58:08;14.30;99.90
32839;DHT22;19182;41.820;12.808;2024-02-16T08:05:30;14.80;99.90
32839;DHT22;19182;41.820;12.808;2024-02-16T08:20:16;18.30;99.90
32839;DHT22;19182;41.820;12.808;2024-02-16T08:32:28;20.20;95.20
32839;DHT22;19182;41.820;12.808;2024-02-16T08:37:28;18.70;93.70
32839;DHT22;19182;41.820;12.808;2024-02-16T08:39:54;18.50;94.20
32839;DHT22;19182;41.820;12.808;2024-02-16T08:42:20;18.10;94.90
32839;DHT22;19182;41.820;12.808;2024-02-16T08:44:47;18.20;95.40
32839;DHT22;19182;41.820;12.808;2024-02-16T08:47:14;18.30;94.80
32839;DHT22;19182;41.820;12.808;2024-02-16T08:52:08;17.50;94.00
32839;DHT22;19182;41.820;12.808;2024-02-16T08:59:32;16.60;96.20
32839;DHT22;19182;41.820;12.808;2024-02-16T09:01:59;16.50;96.00
32839;DHT22;19182;41.820;12.808;2024-02-16T09:04:26;16.60;96.60
32839;DHT22;19182;41.820;12.808;2024-02-16T09:06:51;17.10;97.60
32839;DHT22;19182;41.820;12.808;2024-02-16T09:09:17;18.20;95.60
32839;DHT22;19182;41.820;12.808;2024-02-16T09:11:44;19.10;93.90
32839;DHT22;19182;41.820;12.808;2024-02-16T09:16:39;19.40;92.00
32839;DHT22;19182;41.820;12.808;2024-02-16T09:19:05;19.30;91.10
32839;DHT22;19182;41.820;12.808;2024-02-16T09:23:57;18.50;91.80
32839;DHT22;19182;41.820;12.808;2024-02-16T09:36:19;16.80;94.30
32839;DHT22;19182;41.820;12.808;2024-02-16T09:41:13;16.50;94.80
32839;DHT22;19182;41.820;12.808;2024-02-16T09:43:38;16.60;95.00
32839;DHT22;19182;41.820;12.808;2024-02-16T09:50:58;16.70;95.60
32839;DHT22;19182;41.820;12.808;2024-02-16T09:53:28;16.60;95.60
32839;DHT22;19182;41.820;12.808;2024-02-16T09:58:22;16.80;95.10
32839;DHT22;19182;41.820;12.808;2024-02-16T10:00:49;17.50;94.50
32839;DHT22;19182;41.820;12.808;2024-02-16T10:03:26;17.70;93.80
32839;DHT22;19182;41.820;12.808;2024-02-16T10:08:19;18.60;92.10
32839;DHT22;19182;41.820;12.808;2024-02-16T10:10:44;18.70;92.20
32839;DHT22;19182;41.820;12.808;2024-02-16T10:13:11;19.30;91.80
32839;DHT22;19182;41.820;12.808;2024-02-16T10:20:33;21.00;86.10
32839;DHT22;19182;41.820;12.808;2024-02-16T10:30:26;20.70;79.70
32839;DHT22;19182;41.820;12.808;2024-02-16T10:35:21;19.40;86.10
32839;DHT22;19182;41.820;12.808;2024-02-16T10:37:50;19.10;84.80
32839;DHT22;19182;41.820;12.808;2024-02-16T10:40:20;19.10;84.50
32839;DHT22;19182;41.820;12.808;2024-02-16T10:42:46;19.10;87.30
32839;DHT22;19182;41.820;12.808;2024-02-16T10:45:14;19.10;86.50
32839;DHT22;19182;41.820;12.808;2024-02-16T10:47:41;19.10;84.90
32839;DHT22;19182;41.820;12.808;2024-02-16T10:50:08;19.00;84.60
32839;DHT22;19182;41.820;12.808;2024-02-16T10:52:39;18.90;86.00
32839;DHT22;19182;41.820;12.808;2024-02-16T10:55:10;18.80;86.60
32839;DHT22;19182;41.820;12.808;2024-02-16T10:57:37;19.10;86.30
32839;DHT22;19182;41.820;12.808;2024-02-16T11:00:12;19.90;86.60
32839;DHT22;19182;41.820;12.808;2024-02-16T11:02:53;21.20;82.90
32839;DHT22;19182;41.820;12.808;2024-02-16T11:08:14;23.60;75.50
32839;DHT22;19182;41.820;12.808;2024-02-16T11:10:54;24.40;70.80
32839;DHT22;19182;41.820;12.808;2024-02-16T11:13:25;25.00;69.10
32839;DHT22;19182;41.820;12.808;2024-02-16T11:16:01;25.70;64.60
32839;DHT22;19182;41.820;12.808;2024-02-16T11:18:29;26.40;65.40
32839;DHT22;19182;41.820;12.808;2024-02-16T11:20:54;27.30;62.10
32839;DHT22;19182;41.820;12.808;2024-02-16T11:23:31;28.10;58.40
32839;DHT22;19182;41.820;12.808;2024-02-16T11:26:04;28.70;56.80
32839;DHT22;19182;41.820;12.808;2024-02-16T11:28:34;29.70;54.20
32839;DHT22;19182;41.820;12.808;2024-02-16T11:31:02;30.30;55.40
32839;DHT22;19182;41.820;12.808;2024-02-16T11:33:28;30.60;54.80
32839;DHT22;19182;41.820;12.808;2024-02-16T11:36:06;30.20;51.60
32839;DHT22;19182;41.820;12.808;2024-02-16T11:38:38;30.70;51.00
32839;DHT22;19182;41.820;12.808;2024-02-16T11:41:05;30.20;50.40
32839;DHT22;19182;41.820;12.808;2024-02-16T11:43:32;30.50;52.00
32839;DHT22;19182;41.820;12.808;2024-02-16T11:46:10;30.30;52.70
32839;DHT22;19182;41.820;12.808;2024-02-16T11:48:36;29.70;52.30
32839;DHT22;19182;41.820;12.808;2024-02-16T11:51:05;29.40;54.40
32839;DHT22;19182;41.820;12.808;2024-02-16T11:53:32;29.00;54.40
32839;DHT22;19182;41.820;12.808;2024-02-16T11:55:59;28.90;54.60
32839;DHT22;19182;41.820;12.808;2024-02-16T11:58:26;28.30;56.20
32839;DHT22;19182;41.820;12.808;2024-02-16T12:01:06;27.90;56.30
32839;DHT22;19182;41.820;12.808;2024-02-16T12:03:35;28.10;54.20
32839;DHT22;19182;41.820;12.808;2024-02-16T12:06:02;27.00;53.10
32839;DHT22;19182;41.820;12.808;2024-02-16T12:08:33;26.60;55.10
32839;DHT22;19182;41.820;12.808;2024-02-16T12:11:02;26.00;54.70
32839;DHT22;19182;41.820;12.808;2024-02-16T12:13:29;25.40;54.60
32839;DHT22;19182;41.820;12.808;2024-02-16T12:15:56;25.20;55.20
32839;DHT22;19182;41.820;12.808;2024-02-16T12:18:24;25.30;56.70
32839;DHT22;19182;41.820;12.808;2024-02-16T12:21:02;24.90;57.70
32839;DHT22;19182;41.820;12.808;2024-02-16T12:23:29;24.90;55.70
32839;DHT22;19182;41.820;12.808;2024-02-16T12:25:59;24.10;57.00
32839;DHT22;19182;41.820;12.808;2024-02-16T12:28:27;23.60;58.10
32839;DHT22;19182;41.820;12.808;2024-02-16T12:30:54;23.80;59.10
32839;DHT22;19182;41.820;12.808;2024-02-16T12:33:22;23.30;61.20
32839;DHT22;19182;41.820;12.808;2024-02-16T12:35:48;23.30;58.30
32839;DHT22;19182;41.820;12.808;2024-02-16T12:38:15;23.10;59.50
32839;DHT22;19182;41.820;12.808;2024-02-16T12:40:54;23.00;59.00
32839;DHT22;19182;41.820;12.808;2024-02-16T12:43:23;22.70;54.90
32839;DHT22;19182;41.820;12.808;2024-02-16T12:45:49;22.40;58.20
32839;DHT22;19182;41.820;12.808;2024-02-16T12:48:16;22.10;58.00
32839;DHT22;19182;41.820;12.808;2024-02-16T12:50:41;21.90;58.40
32839;DHT22;19182;41.820;12.808;2024-02-16T12:53:09;21.00;63.60
32839;DHT22;19182;41.820;12.808;2024-02-16T12:55:36;20.70;65.80
32839;DHT22;19182;41.820;12.808;2024-02-16T12:58:02;20.60;66.10
32839;DHT22;19182;41.820;12.808;2024-02-16T13:00:28;20.30;67.30
32839;DHT22;19182;41.820;12.808;2024-02-16T13:02:55;20.30;69.40
32839;DHT22;19182;41.820;12.808;2024-02-16T13:05:21;20.30;69.80
32839;DHT22;19182;41.820;12.808;2024-02-16T13:07:47;20.30;70.00
32839;DHT22;19182;41.820;12.808;2024-02-16T13:10:14;20.40;72.10
32839;DHT22;19182;41.820;12.808;2024-02-16T13:12:39;20.30;73.60
32839;DHT22;19182;41.820;12.808;2024-02-16T13:15:09;20.20;76.20
32839;DHT22;19182;41.820;12.808;2024-02-16T13:17:36;20.00;78.50
32839;DHT22;19182;41.820;12.808;2024-02-16T13:20:03;19.90;78.50
32839;DHT22;19182;41.820;12.808;2024-02-16T13:22:39;19.70;79.30
32839;DHT22;19182;41.820;12.808;2024-02-16T13:25:07;19.90;79.70
32839;DHT22;19182;41.820;12.808;2024-02-16T13:27:33;20.30;76.20
32839;DHT22;19182;41.820;12.808;2024-02-16T13:30:07;20.50;76.30
32839;DHT22;19182;41.820;12.808;2024-02-16T13:32:34;20.50;73.20
32839;DHT22;19182;41.820;12.808;2024-02-16T13:35:03;20.20;75.00
32839;DHT22;19182;41.820;12.808;2024-02-16T13:37:29;20.10;74.80
32839;DHT22;19182;41.820;12.808;2024-02-16T13:39:56;20.10;76.90
32839;DHT22;19182;41.820;12.808;2024-02-16T13:44:56;20.10;69.60
32839;DHT22;19182;41.820;12.808;2024-02-16T13:47:23;20.10;71.70
32839;DHT22;19182;41.820;12.808;2024-02-16T13:49:48;20.10;74.00
32839;DHT22;19182;41.820;12.808;2024-02-16T13:52:15;20.20;73.30
32839;DHT22;19182;41.820;12.808;2024-02-16T13:54:42;20.30;74.90
32839;DHT22;19182;41.820;12.808;2024-02-16T13:57:09;20.30;75.90
32839;DHT22;19182;41.820;12.808;2024-02-16T13:59:35;19.90;78.70
32839;DHT22;19182;41.820;12.808;2024-02-16T14:02:06;19.80;81.40
32839;DHT22;19182;41.820;12.808;2024-02-16T14:04:33;19.90;77.80
32839;DHT22;19182;41.820;12.808;2024-02-16T14:07:01;20.10;79.30
32839;DHT22;19182;41.820;12.808;2024-02-16T14:09:28;20.10;77.00
32839;DHT22;19182;41.820;12.808;2024-02-16T14:11:54;20.10;77.30
32839;DHT22;19182;41.820;12.808;2024-02-16T14:14:21;20.30;75.50
32839;DHT22;19182;41.820;12.808;2024-02-16T14:16:47;18.00;74.70
32839;DHT22;19182;41.820;12.808;2024-02-16T14:19:13;20.30;79.20
32839;DHT22;19182;41.820;12.808;2024-02-16T14:21:40;20.30;79.20
32839;DHT22;19182;41.820;12.808;2024-02-16T14:24:06;20.10;78.40
32839;DHT22;19182;41.820;12.808;2024-02-16T14:26:42;19.80;78.50
32839;DHT22;19182;41.820;12.808;2024-02-16T14:29:08;19.90;78.40
32839;DHT22;19182;41.820;12.808;2024-02-16T14:31:35;19.80;75.20
32839;DHT22;19182;41.820;12.808;2024-02-16T14:34:01;19.80;79.60
32839;DHT22;19182;41.820;12.808;2024-02-16T14:36:34;19.50;79.60
32839;DHT22;19182;41.820;12.808;2024-02-16T14:41:30;19.50;80.50
32839;DHT22;19182;41.820;12.808;2024-02-16T14:43:57;19.50;79.80
32839;DHT22;19182;41.820;12.808;2024-02-16T14:46:27;19.40;78.00
32839;DHT22;19182;41.820;12.808;2024-02-16T14:48:53;19.30;77.50
32839;DHT22;19182;41.820;12.808;2024-02-16T14:53:46;18.20;77.10
32839;DHT22;19182;41.820;12.808;2024-02-16T14:56:16;19.00;82.90
32839;DHT22;19182;41.820;12.808;2024-02-16T14:58:45;19.00;78.50
32839;DHT22;19182;41.820;12.808;2024-02-16T15:01:12;19.00;80.10
32839;DHT22;19182;41.820;12.808;2024-02-16T15:03:37;18.90;81.90
32839;DHT22;19182;41.820;12.808;2024-02-16T15:06:07;18.70;82.50
32839;DHT22;19182;41.820;12.808;2024-02-16T15:08:36;18.70;82.70
32839;DHT22;19182;41.820;12.808;2024-02-16T15:11:03;18.70;83.50
32839;DHT22;19182;41.820;12.808;2024-02-16T15:13:30;18.70;84.10
32839;DHT22;19182;41.820;12.808;2024-02-16T15:15:57;18.60;83.80
32839;DHT22;19182;41.820;12.808;2024-02-16T15:18:23;18.50;84.20
32839;DHT22;19182;41.820;12.808;2024-02-16T15:20:49;18.40;86.30
32839;DHT22;19182;41.820;12.808;2024-02-16T15:23:16;18.30;87.30
32839;DHT22;19182;41.820;12.808;2024-02-16T15:28:12;18.20;87.30
32839;DHT22;19182;41.820;12.808;2024-02-16T15:30:40;18.10;86.10
32839;DHT22;19182;41.820;12.808;2024-02-16T15:33:07;18.10;86.90
32839;DHT22;19182;41.820;12.808;2024-02-16T15:40:33;17.70;90.10
32839;DHT22;19182;41.820;12.808;2024-02-16T15:43:00;17.60;91.90
32839;DHT22;19182;41.820;12.808;2024-02-16T15:45:27;17.50;93.60
32839;DHT22;19182;41.820;12.808;2024-02-16T15:48:11;17.40;96.10
32839;DHT22;19182;41.820;12.808;2024-02-16T15:50:42;17.30;97.60
32839;DHT22;19182;41.820;12.808;2024-02-16T15:53:09;17.20;99.90
32839;DHT22;19182;41.820;12.808;2024-02-16T15:55:37;17.10;99.90
32839;DHT22;19182;41.820;12.808;2024-02-16T15:58:06;17.00;99.90
32839;DHT22;19182;41.820;12.808;2024-02-16T16:00:32;16.90;99.90
32839;DHT22;19182;41.820;12.808;2024-02-16T16:03:00;16.70;99.90
32839;DHT22;19182;41.820;12.808;2024-02-16T16:05:26;16.70;99.90
32839;DHT22;19182;41.820;12.808;2024-02-16T16:07:57;16.50;99.90
32839;DHT22;19182;41.820;12.808;2024-02-16T16:10:25;16.30;99.90
32839;DHT22;19182;41.820;12.808;2024-02-16T16:12:51;16.20;99.90
32839;DHT22;19182;41.820;12.808;2024-02-16T16:17:44;15.90;99.90
32839;DHT22;19182;41.820;12.808;2024-02-16T16:20:10;15.70;99.90
32839;DHT22;19182;41.820;12.808;2024-02-16T16:22:37;15.60;99.90
32839;DHT22;19182;41.820;12.808;2024-02-16T16:25:03;15.40;99.90
32839;DHT22;19182;41.820;12.808;2024-02-16T16:27:31;15.30;99.90
32839;DHT22;19182;41.820;12.808;2024-02-16T16:29:58;15.00;99.90
32839;DHT22;19182;41.820;12.808;2024-02-16T16:32:25;15.00;99.90
32839;DHT22;19182;41.820;12.808;2024-02-16T16:34:53;14.80;99.90
32839;DHT22;19182;41.820;12.808;2024-02-16T16:37:20;14.70;99.90
32839;DHT22;19182;41.820;12.808;2024-02-16T16:39:45;14.60;99.90
32839;DHT22;19182;41.820;12.808;2024-02-16T16:42:17;14.40;99.90
32839;DHT22;19182;41.820;12.808;2024-02-16T16:44:43;14.40;99.90
32839;DHT22;19182;41.820;12.808;2024-02-16T16:49:41;14.20;99.90
32839;DHT22;19182;41.820;12.808;2024-02-16T16:52:08;13.80;99.90
32839;DHT22;19182;41.820;12.808;2024-02-16T16:54:37;13.60;99.90
32839;DHT22;19182;41.820;12.808;2024-02-16T16:57:05;13.30;99.90
32839;DHT22;19182;41.820;12.808;2024-02-16T16:59:37;13.10;99.90
32839;DHT22;19182;41.820;12.808;2024-02-16T17:02:04;12.90;99.90
32839;DHT22;19182;41.820;12.808;2024-02-16T17:04:33;12.90;99.90
32839;DHT22;19182;41.820;12.808;2024-02-16T17:11:58;12.70;99.90
32839;DHT22;19182;41.820;12.808;2024-02-16T17:16:58;12.60;99.90
32839;DHT22;19182;41.820;12.808;2024-02-16T17:19:29;12.70;99.90
32839;DHT22;19182;41.820;12.808;2024-02-16T17:21:56;12.60;99.90
32839;DHT22;19182;41.820;12.808;2024-02-16T17:24:27;12.00;99.90
32839;DHT22;19182;41.820;12.808;2024-02-16T17:26:56;12.30;99.90
32839;DHT22;19182;41.820;12.808;2024-02-16T17:29:25;12.00;99.90
32839;DHT22;19182;41.820;12.808;2024-02-16T17:31:51;12.00;99.90
32839;DHT22;19182;41.820;12.808;2024-02-16T17:34:17;12.00;99.90
32839;DHT22;19182;41.820;12.808;2024-02-16T17:36:47;11.90;99.90
32839;DHT22;19182;41.820;12.808;2024-02-16T17:39:15;11.80;99.90
32839;DHT22;19182;41.820;12.808;2024-02-16T17:44:07;11.70;99.90
32839;DHT22;19182;41.820;12.808;2024-02-16T17:49:00;11.60;99.90
32839;DHT22;19182;41.820;12.808;2024-02-16T17:51:27;11.70;99.90
32839;DHT22;19182;41.820;12.808;2024-02-16T17:53:54;13.20;99.90
32839;DHT22;19182;41.820;12.808;2024-02-16T17:56:20;11.40;99.90
32839;DHT22;19182;41.820;12.808;2024-02-16T17:58:46;11.50;99.90
32839;DHT22;19182;41.820;12.808;2024-02-16T18:03:44;11.30;99.90
32839;DHT22;19182;41.820;12.808;2024-02-16T18:06:11;11.20;99.90
32839;DHT22;19182;41.820;12.808;2024-02-16T18:08:36;11.20;99.90
32839;DHT22;19182;41.820;12.808;2024-02-16T18:11:02;11.20;99.90
32839;DHT22;19182;41.820;12.808;2024-02-16T18:13:28;11.10;99.90
32839;DHT22;19182;41.820;12.808;2024-02-16T18:15:55;10.90;99.90
32839;DHT22;19182;41.820;12.808;2024-02-16T18:25:42;10.80;99.90
32839;DHT22;19182;41.820;12.808;2024-02-16T18:28:08;10.50;99.90
32839;DHT22;19182;41.820;12.808;2024-02-16T18:30:35;10.60;99.90
32839;DHT22;19182;41.820;12.808;2024-02-16T18:33:16;10.40;99.90
32839;DHT22;19182;41.820;12.808;2024-02-16T18:35:46;10.40;99.90
32839;DHT22;19182;41.820;12.808;2024-02-16T18:40:39;10.60;99.90
32839;DHT22;19182;41.820;12.808;2024-02-16T18:43:06;10.50;99.90
32839;DHT22;19182;41.820;12.808;2024-02-16T18:45:32;10.60;99.90
32839;DHT22;19182;41.820;12.808;2024-02-16T18:47:59;10.70;99.90
32839;DHT22;19182;41.820;12.808;2024-02-16T18:52:53;10.30;99.90
32839;DHT22;19182;41.820;12.808;2024-02-16T18:57:45;10.20;99.90
32839;DHT22;19182;41.820;12.808;2024-02-16T19:00:11;10.10;99.90
32839;DHT22;19182;41.820;12.808;2024-02-16T19:02:38;10.00;99.90
32839;DHT22;19182;41.820;12.808;2024-02-16T19:05:09;10.00;99.90
32839;DHT22;19182;41.820;12.808;2024-02-16T19:07:36;10.00;99.90
32839;DHT22;19182;41.820;12.808;2024-02-16T19:10:04;10.00;99.90
32839;DHT22;19182;41.820;12.808;2024-02-16T19:12:31;10.00;99.90
32839;DHT22;19182;41.820;12.808;2024-02-16T19:14:58;9.90;99.90
32839;DHT22;19182;41.820;12.808;2024-02-16T19:17:26;9.90;99.90
32839;DHT22;19182;41.820;12.808;2024-02-16T19:19:52;10.00;99.90
32839;DHT22;19182;41.820;12.808;2024-02-16T19:22:19;10.00;99.90
32839;DHT22;19182;41.820;12.808;2024-02-16T19:24:45;9.90;99.90
32839;DHT22;19182;41.820;12.808;2024-02-16T19:29:39;9.90;99.90
32839;DHT22;19182;41.820;12.808;2024-02-16T19:32:06;9.90;99.90
32839;DHT22;19182;41.820;12.808;2024-02-16T19:37:01;9.80;99.90
32839;DHT22;19182;41.820;12.808;2024-02-16T19:41:54;9.60;99.90
32839;DHT22;19182;41.820;12.808;2024-02-16T19:44:23;9.50;99.90
32839;DHT22;19182;41.820;12.808;2024-02-16T19:46:49;9.40;99.90
32839;DHT22;19182;41.820;12.808;2024-02-16T19:49:15;9.40;99.90
32839;DHT22;19182;41.820;12.808;2024-02-16T19:51:40;9.40;99.90
32839;DHT22;19182;41.820;12.808;2024-02-16T19:56:35;9.40;99.90
32839;DHT22;19182;41.820;12.808;2024-02-16T19:59:01;9.40;99.90
32839;DHT22;19182;41.820;12.808;2024-02-16T20:01:27;9.20;99.90
32839;DHT22;19182;41.820;12.808;2024-02-16T20:03:53;9.10;99.90
32839;DHT22;19182;41.820;12.808;2024-02-16T20:08:46;9.10;99.90
32839;DHT22;19182;41.820;12.808;2024-02-16T20:11:12;9.10;99.90
32839;DHT22;19182;41.820;12.808;2024-02-16T20:13:39;9.10;99.90
32839;DHT22;19182;41.820;12.808;2024-02-16T20:16:05;9.00;99.90
32839;DHT22;19182;41.820;12.808;2024-02-16T20:18:32;8.90;99.90
32839;DHT22;19182;41.820;12.808;2024-02-16T20:25:52;8.80;99.90
32839;DHT22;19182;41.820;12.808;2024-02-16T20:28:19;8.60;99.90
32839;DHT22;19182;41.820;12.808;2024-02-16T20:30:47;8.70;99.90
32839;DHT22;19182;41.820;12.808;2024-02-16T20:33:15;8.80;99.90
32839;DHT22;19182;41.820;12.808;2024-02-16T20:35:41;8.70;99.90
32839;DHT22;19182;41.820;12.808;2024-02-16T20:43:02;8.50;99.90
32839;DHT22;19182;41.820;12.808;2024-02-16T20:48:01;8.40;99.90
32839;DHT22;19182;41.820;12.808;2024-02-16T20:53:00;8.30;99.90
32839;DHT22;19182;41.820;12.808;2024-02-16T20:55:27;8.20;99.90
32839;DHT22;19182;41.820;12.808;2024-02-16T20:57:56;8.20;99.90
32839;DHT22;19182;41.820;12.808;2024-02-16T21:02:51;8.30;99.90
32839;DHT22;19182;41.820;12.808;2024-02-16T21:07:50;8.20;99.90
32839;DHT22;19182;41.820;12.808;2024-02-16T21:17:39;8.00;99.90
32839;DHT22;19182;41.820;12.808;2024-02-16T21:22:32;7.90;99.90
32839;DHT22;19182;41.820;12.808;2024-02-16T21:32:24;7.60;99.90
32839;DHT22;19182;41.820;12.808;2024-02-16T21:34:50;7.70;99.90
32839;DHT22;19182;41.820;12.808;2024-02-16T21:42:12;7.70;99.90
32839;DHT22;19182;41.820;12.808;2024-02-16T21:47:12;7.50;99.90
32839;DHT22;19182;41.820;12.808;2024-02-16T21:49:39;7.40;99.90
32839;DHT22;19182;41.820;12.808;2024-02-16T21:54:37;7.60;99.90
32839;DHT22;19182;41.820;12.808;2024-02-16T22:16:41;7.20;99.90
32839;DHT22;19182;41.820;12.808;2024-02-16T22:24:15;7.10;99.90
32839;DHT22;19182;41.820;12.808;2024-02-16T22:36:36;6.70;99.90
32839;DHT22;19182;41.820;12.808;2024-02-16T22:39:02;6.70;99.90
32839;DHT22;19182;41.820;12.808;2024-02-16T22:48:55;6.70;99.90
32839;DHT22;19182;41.820;12.808;2024-02-16T22:56:18;6.60;99.90
32839;DHT22;19182;41.820;12.808;2024-02-16T23:01:12;6.70;99.90
32839;DHT22;19182;41.820;12.808;2024-02-16T23:06:07;6.40;99.90
32839;DHT22;19182;41.820;12.808;2024-02-16T23:15:53;6.20;99.90
32839;DHT22;19182;41.820;12.808;2024-02-16T23:18:19;6.20;99.90
32839;DHT22;19182;41.820;12.808;2024-02-16T23:25:43;6.10;99.90
32839;DHT22;19182;41.820;12.808;2024-02-16T23:30:47;6.10;99.90
32839;DHT22;19182;41.820;12.808;2024-02-16T23:33:12;6.20;99.90
32839;DHT22;19182;41.820;12.808;2024-02-16T23:35:39;6.20;99.90
32839;DHT22;19182;41.820;12.808;2024-02-16T23:40:31;6.30;99.90
32839;DHT22;19182;41.820;12.808;2024-02-16T23:42:57;6.20;99.90
32839;DHT22;19182;41.820;12.808;2024-02-16T23:50:18;6.20;99.90
32839;DHT22;19182;41.820;12.808;2024-02-16T23:52:45;6.10;99.90
32839;DHT22;19182;41.820;12.808;2024-02-16T23:55:11;6.10;99.90
32839;DHT22;19182;41.820;12.808;2024-02-16T23:57:37;5.80;99.90
